createdAt,value
2018-11-21T00:01:11.731Z,100453.75
2018-11-21T00:03:37.661Z,100449.44
2018-11-21T00:06:03.595Z,100465.75
2018-11-21T00:08:29.543Z,100464.25
2018-11-21T00:10:55.475Z,100466.39
2018-11-21T00:13:21.426Z,100474.16
2018-11-21T00:15:47.369Z,100473.16
2018-11-21T00:18:13.308Z,100474.47
2018-11-21T00:20:39.241Z,100471.83
2018-11-21T00:23:05.222Z,100462.74
2018-11-21T00:25:31.161Z,100459.28
2018-11-21T00:27:57.102Z,100462.88
2018-11-21T00:30:23.072Z,100470.33
2018-11-21T00:32:49.014Z,100471.75
2018-11-21T00:35:15.037Z,100476.20
2018-11-21T00:37:40.964Z,100484.94
2018-11-21T00:40:06.885Z,100478.34
2018-11-21T00:42:32.805Z,100476.70
2018-11-21T00:44:58.732Z,100492.34
2018-11-21T00:47:24.667Z,100483.62
2018-11-21T00:49:50.618Z,100490.56
2018-11-21T00:52:16.554Z,100491.20
2018-11-21T00:54:42.578Z,100496.48
2018-11-21T00:57:08.551Z,100484.61
2018-11-21T00:59:34.520Z,100471.42
2018-11-21T01:02:00.456Z,100477.16
2018-11-21T01:04:26.471Z,100471.56
2018-11-21T01:06:52.402Z,100467.11
2018-11-21T01:09:18.364Z,100484.88
2018-11-21T01:11:44.345Z,100488.02
2018-11-21T01:14:10.267Z,100493.42
2018-11-21T01:16:36.207Z,100503.64
2018-11-21T01:19:02.145Z,100503.98
2018-11-21T01:21:28.102Z,100506.78
2018-11-21T01:23:54.029Z,100521.61
2018-11-21T01:26:19.989Z,100520.78
2018-11-21T01:28:45.910Z,100527.70
2018-11-21T01:31:11.887Z,100530.70
2018-11-21T01:33:37.913Z,100535.48
2018-11-21T01:36:03.931Z,100531.66
2018-11-21T01:38:29.855Z,100537.43
2018-11-21T01:40:55.822Z,100542.37
2018-11-21T01:43:21.808Z,100549.10
2018-11-21T01:45:47.754Z,100540.86
2018-11-21T01:48:13.681Z,100549.41
2018-11-21T01:50:39.611Z,100541.69
2018-11-21T01:53:06.508Z,100543.50
2018-11-21T01:55:32.591Z,100542.81
2018-11-21T01:57:58.527Z,100544.45
2018-11-21T02:00:24.465Z,100557.17
2018-11-21T02:02:50.663Z,100551.55
2018-11-21T02:05:16.599Z,100551.71
2018-11-21T02:07:42.542Z,100559.13
2018-11-21T02:10:08.531Z,100555.99
2018-11-21T02:12:34.488Z,100565.41
2018-11-21T02:15:00.380Z,100572.20
2018-11-21T02:17:26.446Z,100567.75
2018-11-21T02:19:52.357Z,100570.94
2018-11-21T02:22:18.304Z,100567.80
2018-11-21T02:24:44.314Z,100564.67
2018-11-21T02:27:10.258Z,100570.44
2018-11-21T02:29:36.200Z,100571.90
2018-11-21T02:32:02.158Z,100570.58
2018-11-21T02:34:28.086Z,100566.13
2018-11-21T02:36:54.042Z,100578.84
2018-11-21T02:39:20.186Z,100578.84
2018-11-21T02:41:46.116Z,100576.48
2018-11-21T02:44:12.049Z,100583.38
2018-11-21T02:46:38.127Z,100588.16
2018-11-21T02:49:04.103Z,100589.97
2018-11-21T02:51:30.020Z,100589.64
2018-11-21T02:53:55.956Z,100593.92
2018-11-21T02:56:21.893Z,100600.88
2018-11-21T02:58:47.830Z,100606.61
2018-11-21T03:01:13.801Z,100611.26
2018-11-21T03:03:39.722Z,100614.88
2018-11-21T03:06:05.656Z,100613.06
2018-11-21T03:08:31.590Z,100613.27
2018-11-21T03:10:57.524Z,100604.53
2018-11-21T03:13:28.294Z,100603.02
2018-11-21T03:15:49.384Z,100603.52
2018-11-21T03:18:15.409Z,100605.78
2018-11-21T03:20:41.334Z,100623.55
2018-11-21T03:23:07.257Z,100622.23
2018-11-21T03:25:33.185Z,100629.81
2018-11-21T03:27:59.154Z,100628.17
2018-11-21T03:30:25.084Z,100630.64
2018-11-21T03:32:51.034Z,100640.23
2018-11-21T03:35:16.958Z,100647.78
2018-11-21T03:37:42.917Z,100650.91
2018-11-21T03:40:08.853Z,100653.55
2018-11-21T03:42:34.812Z,100657.20
2018-11-21T03:45:00.738Z,100654.56
2018-11-21T03:47:26.681Z,100659.70
2018-11-21T03:49:52.611Z,100656.91
2018-11-21T03:52:18.534Z,100664.19
2018-11-21T03:54:44.639Z,100672.30
2018-11-21T03:57:10.555Z,100670.16
2018-11-21T03:59:36.505Z,100675.92
2018-11-21T04:02:02.604Z,100672.45
2018-11-21T04:04:28.555Z,100669.33
2018-11-21T04:06:54.562Z,100660.09
2018-11-21T04:09:20.509Z,100659.27
2018-11-21T04:11:46.431Z,100662.38
2018-11-21T04:14:12.442Z,100667.19
2018-11-21T04:16:38.380Z,100659.61
2018-11-21T04:19:04.297Z,100669.20
2018-11-21T04:21:30.243Z,100663.92
2018-11-21T04:23:56.355Z,100669.66
2018-11-21T04:26:22.271Z,100684.16
2018-11-21T04:28:48.201Z,100696.88
2018-11-21T04:31:14.138Z,100693.16
2018-11-21T04:33:40.083Z,100691.67
2018-11-21T04:36:06.005Z,100693.69
2018-11-21T04:38:31.949Z,100701.10
2018-11-21T04:40:57.873Z,100705.55
2018-11-21T04:43:23.893Z,100704.23
2018-11-21T04:45:49.814Z,100708.69
2018-11-21T04:48:15.743Z,100716.44
2018-11-21T04:50:41.661Z,100717.09
2018-11-21T04:53:07.671Z,100710.14
2018-11-21T04:55:33.605Z,100707.17
2018-11-21T04:57:59.552Z,100716.89
2018-11-21T05:00:25.481Z,100718.21
2018-11-21T05:02:51.418Z,100727.77
2018-11-21T05:05:17.342Z,100746.36
2018-11-21T05:07:43.280Z,100745.41
2018-11-21T05:10:09.274Z,100743.59
2018-11-21T05:12:35.204Z,100742.61
2018-11-21T05:15:01.123Z,100748.57
2018-11-21T05:17:27.083Z,100750.72
2018-11-21T05:19:53.086Z,100748.57
2018-11-21T05:22:19.050Z,100751.58
2018-11-21T05:24:44.975Z,100748.28
2018-11-21T05:27:10.909Z,100750.78
2018-11-21T05:29:36.844Z,100746.20
2018-11-21T05:32:02.791Z,100752.30
2018-11-21T05:34:28.750Z,100753.42
2018-11-21T05:36:54.677Z,100757.18
2018-11-21T05:39:20.694Z,100760.64
2018-11-21T05:41:46.622Z,100769.18
2018-11-21T05:44:12.568Z,100773.63
2018-11-21T05:46:38.525Z,100779.53
2018-11-21T05:49:04.472Z,100771.28
2018-11-21T05:51:30.445Z,100772.94
2018-11-21T05:53:56.508Z,100785.66
2018-11-21T05:56:22.438Z,100794.52
2018-11-21T05:58:48.421Z,100801.48
2018-11-21T06:01:14.392Z,100801.81
2018-11-21T06:03:40.318Z,100802.80
2018-11-21T06:06:09.896Z,100799.80
2018-11-21T06:08:32.245Z,100805.14
2018-11-21T06:10:58.188Z,100804.52
2018-11-21T06:13:24.187Z,100812.77
2018-11-21T06:15:50.172Z,100815.41
2018-11-21T06:18:16.140Z,100813.75
2018-11-21T06:20:42.155Z,100825.00
2018-11-21T06:23:08.087Z,100821.87
2018-11-21T06:25:34.025Z,100822.82
2018-11-21T06:27:59.969Z,100826.94
2018-11-21T06:30:25.909Z,100829.22
2018-11-21T06:32:51.869Z,100826.73
2018-11-21T06:35:17.792Z,100832.97
2018-11-21T06:37:43.717Z,100835.77
2018-11-21T06:40:10.249Z,100844.50
2018-11-21T06:42:36.260Z,100844.50
2018-11-21T06:45:02.183Z,100843.31
2018-11-21T06:47:28.194Z,100845.95
2018-11-21T06:49:54.135Z,100845.45
2018-11-21T06:52:22.209Z,100850.41
2018-11-21T06:54:46.097Z,100851.92
2018-11-21T06:57:12.027Z,100853.11
2018-11-21T06:59:38.067Z,100866.14
2018-11-21T07:02:04.051Z,100882.17
2018-11-21T07:04:30.001Z,100878.70
2018-11-21T07:06:56.010Z,100878.70
2018-11-21T07:09:22.220Z,100880.85
2018-11-21T07:11:48.188Z,100881.84
2018-11-21T07:14:14.190Z,100884.97
2018-11-21T07:16:40.143Z,100892.88
2018-11-21T07:19:06.068Z,100902.57
2018-11-21T07:21:32.070Z,100900.59
2018-11-21T07:23:58.033Z,100899.60
2018-11-21T07:26:24.031Z,100883.91
2018-11-21T07:28:49.948Z,100899.06
2018-11-21T07:31:15.905Z,100899.40
2018-11-21T07:33:46.550Z,100906.33
2018-11-21T07:36:07.884Z,100903.69
2018-11-21T07:38:33.822Z,100902.11
2018-11-21T07:40:59.769Z,100913.12
2018-11-21T07:43:25.735Z,100911.68
2018-11-21T07:45:51.661Z,100914.88
2018-11-21T07:48:20.593Z,100916.20
2018-11-21T07:50:43.523Z,100920.16
2018-11-21T07:53:09.456Z,100930.55
2018-11-21T07:55:35.397Z,100928.12
2018-11-21T07:58:02.423Z,100933.19
2018-11-21T08:00:28.359Z,100931.87
2018-11-21T08:02:54.277Z,100935.98
2018-11-21T08:05:20.200Z,100941.27
2018-11-21T08:07:46.247Z,100936.81
2018-11-21T08:10:12.184Z,100942.42
2018-11-21T08:12:38.164Z,100948.52
2018-11-21T08:15:04.051Z,100952.84
2018-11-21T08:17:29.972Z,100956.11
2018-11-21T08:19:55.933Z,100960.77
2018-11-21T08:22:21.937Z,100966.98
2018-11-21T08:24:47.901Z,100961.25
2018-11-21T08:27:13.828Z,100971.11
2018-11-21T08:29:39.795Z,100963.19
2018-11-21T08:32:05.731Z,100966.98
2018-11-21T08:34:31.659Z,100966.24
2018-11-21T08:36:57.629Z,100966.11
2018-11-21T08:39:23.559Z,100981.78
2018-11-21T08:41:49.471Z,100990.06
2018-11-21T08:44:15.432Z,100990.40
2018-11-21T08:46:41.360Z,100996.22
2018-11-21T08:49:07.311Z,100997.75
2018-11-21T08:51:33.245Z,100997.91
2018-11-21T08:53:59.258Z,100997.41
2018-11-21T08:56:25.357Z,101013.94
2018-11-21T08:58:51.282Z,101018.59
2018-11-21T09:01:17.210Z,101018.44
2018-11-21T09:03:43.212Z,101016.17
2018-11-21T09:06:09.147Z,101021.98
2018-11-21T09:08:35.076Z,101023.67
2018-11-21T09:11:01.258Z,101023.31
2018-11-21T09:13:27.330Z,101019.34
2018-11-21T09:15:53.503Z,101021.98
2018-11-21T09:18:19.215Z,101028.33
2018-11-21T09:20:45.292Z,101021.45
2018-11-21T09:23:11.286Z,101023.92
2018-11-21T09:25:37.165Z,101033.86
2018-11-21T09:28:03.341Z,101040.34
2018-11-21T09:30:29.277Z,101056.38
2018-11-21T09:32:55.307Z,101051.92
2018-11-21T09:35:21.260Z,101065.95
2018-11-21T09:37:47.484Z,101059.35
2018-11-21T09:40:13.434Z,101065.13
2018-11-21T09:42:39.433Z,101061.99
2018-11-21T09:45:05.472Z,101059.35
2018-11-21T09:47:31.411Z,101066.94
2018-11-21T09:49:57.398Z,101066.94
2018-11-21T09:52:23.448Z,101070.07
2018-11-21T09:54:49.377Z,101071.18
2018-11-21T09:57:15.399Z,101071.31
2018-11-21T09:59:41.436Z,101072.42
2018-11-21T10:02:07.365Z,101081.78
2018-11-21T10:04:33.293Z,101091.67
2018-11-21T10:06:59.230Z,101101.37
2018-11-21T10:09:25.173Z,101107.84
2018-11-21T10:11:51.137Z,101100.42
2018-11-21T10:14:17.066Z,101098.60
2018-11-21T10:16:43.029Z,101102.23
2018-11-21T10:19:08.987Z,101102.56
2018-11-21T10:21:34.962Z,101093.66
2018-11-21T10:24:01.393Z,101089.70
2018-11-21T10:26:27.450Z,101086.11
2018-11-21T10:28:53.478Z,101085.41
2018-11-21T10:31:19.491Z,101078.19
2018-11-21T10:33:45.540Z,101084.79
2018-11-21T10:36:11.483Z,101078.53
2018-11-21T10:38:37.450Z,101083.19
2018-11-21T10:41:03.410Z,101085.62
2018-11-21T10:43:29.323Z,101077.49
2018-11-21T10:45:55.313Z,101072.55
2018-11-21T10:48:21.419Z,101074.73
2018-11-21T10:50:47.479Z,101075.84
2018-11-21T10:53:13.443Z,101078.47
2018-11-21T10:55:39.412Z,101085.41
2018-11-21T10:58:05.337Z,101076.17
2018-11-21T11:00:31.278Z,101085.28
2018-11-21T11:02:57.208Z,101089.24
2018-11-21T11:05:23.125Z,101092.70
2018-11-21T11:07:49.056Z,101094.03
2018-11-21T11:10:15.048Z,101101.45
2018-11-21T11:12:41.004Z,101108.55
2018-11-21T11:15:06.941Z,101107.06
2018-11-21T11:17:32.894Z,101102.64
2018-11-21T11:19:58.823Z,101106.11
2018-11-21T11:22:24.757Z,101102.64
2018-11-21T11:24:50.899Z,101101.79
2018-11-21T11:27:16.823Z,101105.41
2018-11-21T11:29:42.796Z,101106.94
2018-11-21T11:32:08.773Z,101112.22
2018-11-21T11:34:34.708Z,101111.23
2018-11-21T11:37:00.626Z,101111.11
2018-11-21T11:39:26.579Z,101113.13
2018-11-21T11:41:52.515Z,101116.27
2018-11-21T11:44:18.470Z,101115.16
2018-11-21T11:46:44.436Z,101116.68
2018-11-21T11:49:10.356Z,101112.72
2018-11-21T11:51:36.289Z,101119.66
2018-11-21T11:54:02.247Z,101116.68
2018-11-21T11:56:28.271Z,101124.39
2018-11-21T11:58:54.201Z,101113.13
2018-11-21T12:01:20.133Z,101108.13
2018-11-21T12:03:46.052Z,101121.45
2018-11-21T12:06:12.068Z,101121.13
2018-11-21T12:08:38.009Z,101109.03
2018-11-21T12:11:03.941Z,101113.00
2018-11-21T12:13:29.939Z,101110.48
2018-11-21T12:15:55.904Z,101110.77
2018-11-21T12:18:21.835Z,101114.02
2018-11-21T12:20:47.780Z,101111.50
2018-11-21T12:23:13.707Z,101106.38
2018-11-21T12:25:39.701Z,101107.70
2018-11-21T12:28:05.737Z,101113.11
2018-11-21T12:30:31.743Z,101122.13
2018-11-21T12:32:57.686Z,101132.77
2018-11-21T12:35:23.792Z,101133.94
2018-11-21T12:37:49.718Z,101118.47
2018-11-21T12:40:15.646Z,101109.69
2018-11-21T12:42:41.625Z,101110.19
2018-11-21T12:45:07.602Z,101117.77
2018-11-21T12:47:33.557Z,101112.13
2018-11-21T12:49:59.531Z,101117.06
2018-11-21T12:52:25.465Z,101110.59
2018-11-21T12:54:51.457Z,101095.74
2018-11-21T12:57:17.407Z,101097.40
2018-11-21T12:59:44.719Z,101087.83
2018-11-21T13:02:09.332Z,101094.91
2018-11-21T13:04:35.348Z,101109.55
2018-11-21T13:07:01.832Z,101109.42
2018-11-21T13:09:27.758Z,101101.63
2018-11-21T13:11:53.694Z,101104.61
2018-11-21T13:14:20.670Z,101107.62
2018-11-21T13:16:46.629Z,101102.67
2018-11-21T13:19:12.575Z,101102.06
2018-11-21T13:21:41.385Z,101100.41
2018-11-21T13:24:07.322Z,101113.93
2018-11-21T13:26:33.254Z,101125.47
2018-11-21T13:28:59.203Z,101129.55
2018-11-21T13:31:25.144Z,101121.30
2018-11-21T13:33:51.105Z,101112.19
2018-11-21T13:36:17.126Z,101124.06
2018-11-21T13:38:43.115Z,101133.30
2018-11-21T13:41:09.050Z,101135.94
2018-11-21T13:43:34.987Z,101121.92
2018-11-21T13:46:01.035Z,101120.44
2018-11-21T13:48:27.029Z,101119.48
2018-11-21T13:50:53.076Z,101116.57
2018-11-21T13:53:19.012Z,101118.59
2018-11-21T13:55:44.948Z,101126.51
2018-11-21T13:58:10.870Z,101132.13
2018-11-21T14:00:36.801Z,101131.51
2018-11-21T14:03:02.731Z,101133.53
2018-11-21T14:05:28.674Z,101136.88
2018-11-21T14:07:54.607Z,101134.78
2018-11-21T14:10:20.567Z,101132.02
2018-11-21T14:12:46.495Z,101132.02
2018-11-21T14:15:12.426Z,101134.66
2018-11-21T14:17:38.442Z,101137.17
2018-11-21T14:20:04.377Z,101137.63
2018-11-21T14:22:30.303Z,101137.17
2018-11-21T14:24:56.258Z,101142.78
2018-11-21T14:27:22.193Z,101151.69
2018-11-21T14:29:48.146Z,101159.94
2018-11-21T14:32:14.055Z,101169.58
2018-11-21T14:34:40.100Z,101168.76
2018-11-21T14:37:06.098Z,101174.53
2018-11-21T14:39:32.146Z,101173.82
2018-11-21T14:41:58.122Z,101166.52
2018-11-21T14:44:24.074Z,101164.00
2018-11-21T14:46:50.113Z,101170.14
2018-11-21T14:49:16.037Z,101166.89
2018-11-21T14:51:41.995Z,101161.33
2018-11-21T14:54:07.962Z,101170.62
2018-11-21T14:56:33.947Z,101175.16
2018-11-21T14:58:59.886Z,101168.56
2018-11-21T15:01:25.859Z,101175.16
2018-11-21T15:03:51.810Z,101180.08
2018-11-21T15:06:17.819Z,101178.91
2018-11-21T15:08:43.774Z,101183.58
2018-11-21T15:11:09.712Z,101182.25
2018-11-21T15:13:35.628Z,101178.75
2018-11-21T15:16:01.581Z,101182.25
2018-11-21T15:18:27.501Z,101186.22
2018-11-21T15:20:53.457Z,101188.86
2018-11-21T15:23:19.386Z,101187.53
2018-11-21T15:25:45.340Z,101184.68
2018-11-21T15:28:11.276Z,101186.13
2018-11-21T15:30:37.216Z,101187.23
2018-11-21T15:33:03.192Z,101192.02
2018-11-21T15:35:29.127Z,101190.48
2018-11-21T15:37:55.057Z,101192.79
2018-11-21T15:40:20.977Z,101189.16
2018-11-21T15:42:46.916Z,101199.23
2018-11-21T15:45:12.987Z,101198.89
2018-11-21T15:47:38.879Z,101202.98
2018-11-21T15:50:04.828Z,101201.32
2018-11-21T15:52:30.846Z,101206.60
2018-11-21T15:54:56.922Z,101205.77
2018-11-21T15:57:22.851Z,101204.08
2018-11-21T15:59:48.836Z,101204.70
2018-11-21T16:02:14.829Z,101211.30
2018-11-21T16:04:44.321Z,101216.73
2018-11-21T16:07:06.687Z,101211.45
2018-11-21T16:09:32.627Z,101209.42
2018-11-21T16:11:58.556Z,101214.70
2018-11-21T16:14:24.600Z,101216.84
2018-11-21T16:16:50.547Z,101216.23
2018-11-21T16:19:16.497Z,101219.00
2018-11-21T16:21:42.470Z,101224.64
2018-11-21T16:24:08.494Z,101222.00
2018-11-21T16:26:34.462Z,101226.02
2018-11-21T16:29:00.415Z,101223.05
2018-11-21T16:31:26.355Z,101224.86
2018-11-21T16:33:52.353Z,101218.11
2018-11-21T16:36:18.319Z,101224.37
2018-11-21T16:38:44.244Z,101227.63
2018-11-21T16:41:10.160Z,101231.23
2018-11-21T16:43:36.086Z,101231.73
2018-11-21T16:46:02.000Z,101241.92
2018-11-21T16:48:27.963Z,101246.70
2018-11-21T16:50:53.897Z,101242.41
2018-11-21T16:53:19.845Z,101250.81
2018-11-21T16:55:45.884Z,101247.20
2018-11-21T16:58:11.828Z,101251.64
2018-11-21T17:00:37.804Z,101251.16
2018-11-21T17:03:03.733Z,101257.91
2018-11-21T17:05:29.690Z,101263.30
2018-11-21T17:07:55.632Z,101261.38
2018-11-21T17:10:21.575Z,101262.20
2018-11-21T17:12:47.503Z,101269.35
2018-11-21T17:15:13.634Z,101271.99
2018-11-21T17:17:39.522Z,101274.51
2018-11-21T17:20:05.544Z,101272.36
2018-11-21T17:22:31.485Z,101269.35
2018-11-21T17:24:57.409Z,101270.83
2018-11-21T17:27:23.368Z,101272.85
2018-11-21T17:29:53.808Z,101271.31
2018-11-21T17:32:15.248Z,101272.05
2018-11-21T17:34:41.220Z,101278.03
2018-11-21T17:37:07.183Z,101279.84
2018-11-21T17:39:33.111Z,101284.30
2018-11-21T17:41:59.054Z,101282.98
2018-11-21T17:44:24.981Z,101282.82
2018-11-21T17:46:51.938Z,101282.48
2018-11-21T17:49:18.016Z,101281.50
2018-11-21T17:51:44.006Z,101278.86
2018-11-21T17:54:10.062Z,101282.48
2018-11-21T17:56:36.034Z,101278.16
2018-11-21T17:59:02.056Z,101279.84
2018-11-21T18:01:28.080Z,101275.61
2018-11-21T18:03:54.080Z,101289.15
2018-11-21T18:06:20.104Z,101286.88
2018-11-21T18:08:46.175Z,101290.95
2018-11-21T18:11:12.130Z,101296.39
2018-11-21T18:13:38.167Z,101294.20
2018-11-21T18:16:04.211Z,101297.34
2018-11-21T18:18:30.157Z,101297.34
2018-11-21T18:20:56.161Z,101297.95
2018-11-21T18:23:22.178Z,101297.83
2018-11-21T18:25:48.110Z,101309.70
2018-11-21T18:28:14.101Z,101308.05
2018-11-21T18:30:40.057Z,101310.69
2018-11-21T18:33:06.014Z,101315.09
2018-11-21T18:35:35.446Z,101312.00
2018-11-21T18:37:57.885Z,101315.09
2018-11-21T18:40:23.837Z,101320.38
2018-11-21T18:42:49.770Z,101317.40
2018-11-21T18:45:15.716Z,101319.21
2018-11-21T18:47:41.756Z,101323.51
2018-11-21T18:50:11.123Z,101322.41
2018-11-21T18:52:33.643Z,101325.76
2018-11-21T18:54:59.668Z,101321.30
2018-11-21T18:57:25.618Z,101331.03
2018-11-21T18:59:51.554Z,101332.13
2018-11-21T19:02:17.516Z,101337.90
2018-11-21T19:04:43.553Z,101326.97
2018-11-21T19:07:09.640Z,101336.21
2018-11-21T19:09:35.561Z,101326.64
2018-11-21T19:12:01.512Z,101327.34
2018-11-21T19:14:27.443Z,101328.66
2018-11-21T19:16:53.423Z,101325.20
2018-11-21T19:19:19.432Z,101329.27
2018-11-21T19:21:45.376Z,101333.72
2018-11-21T19:24:11.310Z,101326.27
2018-11-21T19:26:37.265Z,101330.59
2018-11-21T19:29:03.256Z,101328.91
2018-11-21T19:31:29.765Z,101322.67
2018-11-21T19:33:55.119Z,101324.95
2018-11-21T19:36:21.159Z,101325.66
2018-11-21T19:38:47.090Z,101319.42
2018-11-21T19:41:13.056Z,101332.96
2018-11-21T19:43:39.021Z,101329.49
2018-11-21T19:46:04.965Z,101324.70
2018-11-21T19:48:30.958Z,101329.00
2018-11-21T19:50:57.015Z,101330.81
2018-11-21T19:53:22.964Z,101323.39
2018-11-21T19:55:48.942Z,101327.34
2018-11-21T19:58:14.980Z,101331.30
2018-11-21T20:00:40.899Z,101337.90
2018-11-21T20:03:06.913Z,101335.75
2018-11-21T20:05:32.863Z,101338.51
2018-11-21T20:07:58.808Z,101339.83
2018-11-21T20:10:24.812Z,101337.68
2018-11-21T20:12:50.795Z,101336.70
2018-11-21T20:15:16.743Z,101345.11
2018-11-21T20:17:42.738Z,101338.85
2018-11-21T20:20:08.701Z,101337.19
2018-11-21T20:22:34.751Z,101337.68
2018-11-21T20:25:00.700Z,101334.44
2018-11-21T20:27:26.732Z,101345.20
2018-11-21T20:29:54.709Z,101344.34
2018-11-21T20:32:18.622Z,101341.38
2018-11-21T20:34:44.574Z,101345.67
2018-11-21T20:37:10.513Z,101339.71
2018-11-21T20:39:36.539Z,101339.34
2018-11-21T20:42:02.494Z,101342.81
2018-11-21T20:44:28.441Z,101338.85
2018-11-21T20:46:54.377Z,101341.48
2018-11-21T20:49:20.322Z,101341.48
2018-11-21T20:51:46.294Z,101339.95
2018-11-21T20:54:12.237Z,101337.46
2018-11-21T20:56:38.204Z,101342.25
2018-11-21T20:59:04.134Z,101342.52
2018-11-21T21:01:30.077Z,101342.14
2018-11-21T21:03:56.011Z,101341.31
2018-11-21T21:06:21.966Z,101338.34
2018-11-21T21:08:47.900Z,101345.50
2018-11-21T21:11:13.826Z,101341.53
2018-11-21T21:13:39.768Z,101343.79
2018-11-21T21:16:05.755Z,101342.81
